Time;durP1;ratioP1;P1;durP2;ratioP2;P2;SDS_P1;SDS_P2;PMS_P1;PMS_P2;Temp;Humidity;BMP_temperature;BMP_pressure;BME280_temperature;BME280_humidity;BME280_pressure;Samples;Min_cycle;Max_cycle;Signal;HPM_P1;HPM_P2
2023/06/17 00:00:10;;;;;;;5.18;3.90;;;;;;;11.99;100.00;101858.53;5058967;28;20034;-76
2023/06/17 00:02:36;;;;;;;6.03;3.90;;;;;;;11.94;100.00;101853.56;5059524;28;20408;-77
2023/06/17 00:05:02;;;;;;;4.88;3.83;;;;;;;11.93;100.00;101854.53;5093788;28;20135;-77
2023/06/17 00:07:29;;;;;;;6.90;3.70;;;;;;;11.89;100.00;101849.53;5075640;28;20028;-75
2023/06/17 00:09:55;;;;;;;6.05;4.38;;;;;;;11.86;100.00;101850.63;5058543;28;20028;-74
2023/06/17 00:12:24;;;;;;;5.85;4.20;;;;;;;11.84;100.00;101852.56;5058786;28;20115;-75
2023/06/17 00:14:50;;;;;;;5.55;4.00;;;;;;;11.82;100.00;101849.16;5075490;28;20026;-75
2023/06/17 00:17:16;;;;;;;6.15;4.13;;;;;;;11.78;100.00;101839.72;5075495;28;20069;-76
2023/06/17 00:19:41;;;;;;;4.95;3.92;;;;;;;11.76;100.00;101844.31;5093344;28;20040;-76
2023/06/17 00:22:08;;;;;;;4.70;3.97;;;;;;;11.71;100.00;101830.53;5093395;28;20038;-77
2023/06/17 00:24:35;;;;;;;5.55;4.13;;;;;;;11.68;100.00;101836.94;5093133;28;20028;-78
2023/06/17 00:27:01;;;;;;;6.68;4.57;;;;;;;11.64;100.00;101838.16;5075386;28;20024;-76
2023/06/17 00:29:26;;;;;;;5.20;4.18;;;;;;;11.62;100.00;101838.25;5074820;28;20039;-75
2023/06/17 00:31:51;;;;;;;7.25;4.60;;;;;;;11.57;100.00;101837.78;5093456;28;20444;-77
2023/06/17 00:34:17;;;;;;;5.53;4.28;;;;;;;11.55;100.00;101841.53;5093613;28;20441;-76
2023/06/17 00:36:42;;;;;;;7.35;4.57;;;;;;;11.53;100.00;101830.16;5074921;28;20062;-78
2023/06/17 00:39:08;;;;;;;5.38;4.43;;;;;;;11.50;100.00;101828.59;5074598;28;20361;-78
2023/06/17 00:41:34;;;;;;;7.32;4.72;;;;;;;11.47;100.00;101832.34;5058363;28;20106;-75
2023/06/17 00:44:00;;;;;;;6.22;4.32;;;;;;;11.45;100.00;101828.13;5074945;28;20019;-77
2023/06/17 00:46:35;;;;;;;6.30;4.72;;;;;;;11.42;100.00;101825.66;5074816;28;20467;-75
2023/06/17 00:49:01;;;;;;;5.30;4.70;;;;;;;11.38;100.00;101822.41;5075506;28;20028;-77
2023/06/17 00:51:27;;;;;;;7.75;4.70;;;;;;;11.37;100.00;101828.69;5092962;28;20089;-75
2023/06/17 00:53:52;;;;;;;6.75;4.70;;;;;;;11.34;100.00;101828.94;5074708;28;20020;-76
2023/06/17 00:56:18;;;;;;;7.45;4.82;;;;;;;11.31;100.00;101829.16;5093065;28;20452;-75
2023/06/17 00:58:45;;;;;;;9.05;4.88;;;;;;;11.28;100.00;101834.75;5074547;28;20119;-75
2023/06/17 01:01:10;;;;;;;5.95;4.55;;;;;;;11.25;100.00;101827.81;5074480;28;20461;-75
2023/06/17 01:03:36;;;;;;;10.10;4.88;;;;;;;11.22;100.00;101830.72;5074242;28;20024;-77
2023/06/17 01:06:11;;;;;;;9.02;5.13;;;;;;;11.20;100.00;101823.84;5092480;28;20135;-76
2023/06/17 01:09:01;;;;;;;7.80;5.80;;;;;;;11.18;100.00;101831.97;5074685;28;20024;-76
2023/06/17 01:11:29;;;;;;;8.27;4.75;;;;;;;11.16;100.00;101825.03;5093110;28;20039;-75
2023/06/17 01:13:56;;;;;;;6.95;5.32;;;;;;;11.14;100.00;101824.28;5074449;28;20140;-76
2023/06/17 01:16:23;;;;;;;7.10;5.60;;;;;;;11.13;100.00;101830.63;5092312;28;20048;-75
2023/06/17 01:18:49;;;;;;;7.88;5.70;;;;;;;11.09;100.00;101822.00;5074023;28;20490;-76
2023/06/17 01:21:17;;;;;;;9.77;6.10;;;;;;;11.09;100.00;101828.19;5074075;28;20036;-75
2023/06/17 01:23:44;;;;;;;8.07;6.30;;;;;;;11.09;100.00;101829.97;5073931;28;20118;-78
2023/06/17 01:26:10;;;;;;;6.72;5.55;;;;;;;11.10;100.00;101829.03;5074141;28;20099;-75
2023/06/17 01:28:38;;;;;;;7.15;5.70;;;;;;;11.07;100.00;101826.59;5073703;28;20032;-76
2023/06/17 01:31:04;;;;;;;10.20;6.90;;;;;;;11.08;100.00;101834.47;5092435;28;20036;-75
2023/06/17 01:33:31;;;;;;;7.82;6.07;;;;;;;11.07;100.00;101834.59;5074762;28;20475;-75
2023/06/17 01:36:10;;;;;;;10.75;6.30;;;;;;;11.04;100.00;101829.50;5073763;28;20032;-76
2023/06/17 01:38:46;;;;;;;8.73;6.10;;;;;;;11.02;100.00;101836.78;5074081;28;20021;-76
2023/06/17 01:41:17;;;;;;;8.05;6.13;;;;;;;10.98;100.00;101841.47;5093005;28;20063;-75
2023/06/17 01:43:45;;;;;;;6.75;5.43;;;;;;;10.95;100.00;101836.38;5092281;28;20024;-76
2023/06/17 01:46:12;;;;;;;7.95;5.93;;;;;;;10.91;100.00;101835.78;5074513;28;20074;-75
2023/06/17 01:48:39;;;;;;;7.57;5.53;;;;;;;10.90;100.00;101827.91;5074095;28;20036;-75
2023/06/17 01:51:05;;;;;;;9.15;6.45;;;;;;;10.90;100.00;101833.22;5074045;28;20036;-75
2023/06/17 01:53:31;;;;;;;8.65;6.28;;;;;;;10.89;100.00;101831.53;5074229;28;20061;-77
2023/06/17 01:55:56;;;;;;;9.50;6.82;;;;;;;10.86;100.00;101829.09;5074283;28;20074;-75
2023/06/17 01:58:21;;;;;;;9.60;6.90;;;;;;;10.86;100.00;101827.28;5092253;28;20028;-74
2023/06/17 02:00:47;;;;;;;9.27;6.88;;;;;;;10.87;100.00;101825.47;5091982;28;20400;-75
2023/06/17 02:03:12;;;;;;;9.05;7.13;;;;;;;10.88;100.00;101830.69;5073979;28;20032;-74
2023/06/17 02:05:38;;;;;;;9.32;6.95;;;;;;;10.87;100.00;101823.66;5092165;28;20039;-77
2023/06/17 02:08:04;;;;;;;8.52;7.20;;;;;;;10.86;100.00;101821.94;5040786;28;20187;-77
2023/06/17 02:10:30;;;;;;;10.68;7.57;;;;;;;10.86;100.00;101816.63;5058936;28;20034;-76
2023/06/17 02:12:55;;;;;;;8.15;6.82;;;;;;;10.85;100.00;101814.94;5098369;28;20467;-75
2023/06/17 02:15:21;;;;;;;10.25;7.65;;;;;;;10.83;100.00;101814.19;5098435;28;20524;-76
2023/06/17 02:17:46;;;;;;;11.43;7.47;;;;;;;10.81;100.00;101815.28;5098571;28;20024;-76
2023/06/17 02:20:12;;;;;;;9.77;7.30;;;;;;;10.80;100.00;101806.44;5097931;28;20035;-77
2023/06/17 02:22:38;;;;;;;8.68;7.43;;;;;;;10.78;100.00;101805.72;5063802;28;20020;-76
2023/06/17 02:25:05;;;;;;;9.90;7.53;;;;;;;10.77;100.00;101806.69;5098501;28;20036;-77
2023/06/17 02:27:30;;;;;;;11.02;8.18;;;;;;;10.75;100.00;101797.97;5080868;28;20035;-77
2023/06/17 02:29:56;;;;;;;9.27;7.72;;;;;;;10.73;100.00;101794.56;5079744;28;20024;-76
2023/06/17 02:32:22;;;;;;;8.80;7.45;;;;;;;10.73;100.00;101789.25;5080228;28;20020;-76
2023/06/17 02:34:49;;;;;;;10.82;7.90;;;;;;;10.70;100.00;101790.34;5080195;28;20027;-76
2023/06/17 02:37:15;;;;;;;13.85;9.68;;;;;;;10.71;100.00;101800.00;5080891;28;20028;-76
2023/06/17 02:39:42;;;;;;;10.60;8.30;;;;;;;10.70;100.00;101797.47;5099908;28;20417;-74
2023/06/17 02:42:08;;;;;;;11.23;8.60;;;;;;;10.68;100.00;101799.41;5081718;28;20069;-76
2023/06/17 02:44:33;;;;;;;11.38;9.35;;;;;;;10.65;100.00;101787.16;5064653;28;20121;-76
2023/06/17 02:46:59;;;;;;;14.93;9.57;;;;;;;10.65;100.00;101792.50;5081062;28;20032;-76
2023/06/17 02:49:24;;;;;;;10.73;8.88;;;;;;;10.65;100.00;101791.66;5081131;28;20505;-76
2023/06/17 02:51:51;;;;;;;12.25;9.55;;;;;;;10.63;100.00;101791.78;5079857;28;20020;-76
2023/06/17 02:54:16;;;;;;;13.32;9.65;;;;;;;10.61;100.00;101790.19;5097858;28;20039;-75
2023/06/17 02:56:42;;;;;;;14.30;10.95;;;;;;;10.62;100.00;101789.22;5079759;28;20028;-75
2023/06/17 02:59:08;;;;;;;14.45;10.07;;;;;;;10.59;100.00;101793.78;5063285;28;20028;-77
2023/06/17 03:01:39;;;;;;;12.80;10.55;;;;;;;10.57;100.00;101790.41;5063275;28;20450;-76
2023/06/17 03:04:05;;;;;;;14.20;11.38;;;;;;;10.59;100.00;101790.28;5098381;28;20023;-77
2023/06/17 03:06:33;;;;;;;14.20;11.63;;;;;;;10.57;100.00;101792.25;5063446;28;20124;-75
2023/06/17 03:09:01;;;;;;;11.75;10.50;;;;;;;10.54;100.00;101787.16;5063248;28;20109;-75
2023/06/17 03:11:28;;;;;;;12.15;9.82;;;;;;;10.51;100.00;101785.56;5079743;28;20024;-77
2023/06/17 03:13:54;;;;;;;13.05;11.23;;;;;;;10.50;100.00;101791.84;5098490;28;20047;-75
2023/06/17 03:16:23;;;;;;;13.88;10.95;;;;;;;10.48;100.00;101783.13;5097847;28;20139;-75
2023/06/17 03:18:48;;;;;;;14.75;10.65;;;;;;;10.50;100.00;101783.00;5079470;28;20081;-76
2023/06/17 03:21:14;;;;;;;14.15;10.52;;;;;;;10.50;100.00;101780.34;5079531;28;20379;-76
2023/06/17 03:23:40;;;;;;;17.13;11.57;;;;;;;10.49;100.00;101778.66;5075854;28;20025;-76
2023/06/17 03:26:06;;;;;;;14.40;11.32;;;;;;;10.49;100.00;101776.81;5095101;28;20016;-75
2023/06/17 03:28:31;;;;;;;14.15;11.15;;;;;;;10.50;100.00;101781.19;5059559;28;20085;-77
2023/06/17 03:30:57;;;;;;;12.32;10.13;;;;;;;10.50;100.00;101778.53;5077134;28;20042;-78
2023/06/17 03:33:22;;;;;;;16.50;10.40;;;;;;;10.51;100.00;101780.22;5059784;28;20103;-74
2023/06/17 03:35:48;;;;;;;13.55;10.73;;;;;;;10.57;100.00;101785.09;5095211;28;20032;-75
2023/06/17 03:38:13;;;;;;;13.40;10.48;;;;;;;10.60;100.00;101789.34;5094452;28;20019;-75
2023/06/17 03:40:39;;;;;;;13.25;9.85;;;;;;;10.59;100.00;101779.66;5076065;28;20393;-77
2023/06/17 03:43:05;;;;;;;12.25;9.93;;;;;;;10.56;100.00;101777.22;5094468;28;20020;-77
2023/06/17 03:45:30;;;;;;;12.30;9.82;;;;;;;10.56;100.00;101786.03;5094589;28;20055;-75
2023/06/17 03:47:57;;;;;;;12.68;11.35;;;;;;;10.57;100.00;101790.41;5095314;28;20076;-76
2023/06/17 03:50:23;;;;;;;15.80;11.52;;;;;;;10.60;100.00;101784.03;5076217;28;20035;-76
2023/06/17 03:52:48;;;;;;;13.40;9.20;;;;;;;10.61;100.00;101780.38;5075901;28;20476;-76
2023/06/17 03:55:13;;;;;;;12.20;9.15;;;;;;;10.58;100.00;101784.13;5059322;28;20046;-76
2023/06/17 03:57:40;;;;;;;10.77;8.75;;;;;;;10.57;100.00;101779.78;5094103;28;20440;-75
2023/06/17 04:00:06;;;;;;;11.10;9.02;;;;;;;10.56;100.00;101783.38;5075988;28;20032;-76
2023/06/17 04:02:32;;;;;;;10.20;8.27;;;;;;;10.55;100.00;101776.38;5076427;28;20055;-75
2023/06/17 04:05:01;;;;;;;11.65;9.55;;;;;;;10.59;100.00;101782.31;5094002;28;20020;-77
2023/06/17 04:07:27;;;;;;;10.90;8.57;;;;;;;10.57;100.00;101779.78;5059710;28;20028;-75
2023/06/17 04:09:53;;;;;;;11.40;8.45;;;;;;;10.61;100.00;101779.53;5075625;28;20055;-76
2023/06/17 04:12:18;;;;;;;10.77;9.30;;;;;;;10.63;100.00;101788.25;5042527;28;20064;-75
2023/06/17 04:14:44;;;;;;;16.58;10.52;;;;;;;10.67;100.00;101787.06;5093696;28;20335;-76
2023/06/17 04:17:10;;;;;;;10.00;7.65;;;;;;;10.71;100.00;101792.03;5093976;28;20134;-76
2023/06/17 04:19:37;;;;;;;9.60;8.60;;;;;;;10.73;100.00;101784.78;5093793;28;20023;-76
2023/06/17 04:22:05;;;;;;;10.40;8.65;;;;;;;10.76;100.00;101789.00;5094544;28;20056;-77
2023/06/17 04:24:31;;;;;;;11.50;9.02;;;;;;;10.80;100.00;101787.81;5075274;28;20107;-77
2023/06/17 04:26:57;;;;;;;12.68;9.23;;;;;;;10.87;100.00;101785.53;5075290;28;20032;-78
2023/06/17 04:29:22;;;;;;;9.82;7.82;;;;;;;10.91;100.00;101784.31;5075317;28;20370;-76
2023/06/17 04:31:47;;;;;;;9.70;8.23;;;;;;;10.96;100.00;101789.28;5075378;28;20080;-76
2023/06/17 04:34:21;;;;;;;11.10;8.25;;;;;;;11.00;100.00;101783.63;5092850;28;20185;-77
2023/06/17 04:36:48;;;;;;;11.52;8.65;;;;;;;11.07;100.00;101787.50;5044042;28;20036;-77
2023/06/17 04:39:14;;;;;;;10.90;8.63;;;;;;;11.13;100.00;101788.84;5058586;28;20047;-76
2023/06/17 04:41:40;;;;;;;11.63;8.52;;;;;;;11.23;100.00;101789.81;5093347;28;20023;-77
2023/06/17 04:44:08;;;;;;;11.52;8.75;;;;;;;11.32;100.00;101785.59;5074891;28;20455;-80
2023/06/17 04:46:33;;;;;;;11.77;8.23;;;;;;;11.39;100.00;101788.59;5076640;28;20165;-75
2023/06/17 04:48:58;;;;;;;9.73;8.07;;;;;;;11.46;100.00;101787.16;5093260;28;20081;-77
2023/06/17 04:51:24;;;;;;;10.13;7.72;;;;;;;11.55;100.00;101788.25;5093349;28;20031;-75
2023/06/17 04:53:50;;;;;;;10.68;7.75;;;;;;;11.62;100.00;101784.94;5074854;28;20472;-75
2023/06/17 04:56:16;;;;;;;9.13;7.22;;;;;;;11.72;100.00;101792.22;5093273;28;20047;-75
2023/06/17 04:58:41;;;;;;;11.90;10.05;;;;;;;11.79;100.00;101793.41;5093241;28;20103;-75
2023/06/17 05:01:09;;;;;;;11.07;9.02;;;;;;;11.91;100.00;101797.78;5058161;28;20119;-75
2023/06/17 05:03:34;;;;;;;8.77;7.88;;;;;;;12.02;100.00;101788.06;5074861;28;20020;-75
2023/06/17 05:06:00;;;;;;;10.82;9.68;;;;;;;12.10;100.00;101785.63;5092695;28;20039;-76
2023/06/17 05:08:25;;;;;;;18.80;12.57;;;;;;;12.24;100.00;101790.69;5092739;28;20372;-75
2023/06/17 05:10:50;;;;;;;16.52;11.57;;;;;;;12.35;100.00;101790.63;5092756;28;20035;-75
2023/06/17 05:13:16;;;;;;;18.40;15.15;;;;;;;12.47;100.00;101788.75;5040855;28;20388;-76
2023/06/17 05:15:41;;;;;;;14.18;11.32;;;;;;;12.59;100.00;101794.06;5057516;28;20052;-75
2023/06/17 05:18:07;;;;;;;17.52;14.40;;;;;;;12.68;100.00;101791.44;5074784;28;20040;-75
2023/06/17 05:20:32;;;;;;;14.38;12.43;;;;;;;12.77;100.00;101791.66;5074424;28;20027;-75
2023/06/17 05:22:57;;;;;;;13.13;9.48;;;;;;;12.84;100.00;101784.81;5074984;28;20452;-75
2023/06/17 05:25:23;;;;;;;12.52;11.07;;;;;;;12.92;100.00;101787.66;5074876;28;20440;-75
2023/06/17 05:27:49;;;;;;;14.80;13.20;;;;;;;13.02;100.00;101791.25;5074882;28;20416;-75
2023/06/17 05:30:15;;;;;;;16.83;13.07;;;;;;;13.16;100.00;101790.03;5074718;28;20523;-75
2023/06/17 05:32:40;;;;;;;18.50;14.27;;;;;;;13.28;100.00;101790.81;5074261;28;20115;-76
2023/06/17 05:35:06;;;;;;;16.13;12.82;;;;;;;13.39;100.00;101787.22;5091932;28;20428;-74
2023/06/17 05:37:32;;;;;;;12.70;11.32;;;;;;;13.50;100.00;101787.13;5057198;28;20028;-76
2023/06/17 05:39:58;;;;;;;11.90;9.95;;;;;;;13.62;100.00;101784.38;5092183;28;20476;-75
2023/06/17 05:42:23;;;;;;;12.52;10.27;;;;;;;13.74;100.00;101786.78;5057332;28;20036;-74
2023/06/17 05:44:48;;;;;;;14.48;9.80;;;;;;;13.89;100.00;101781.06;5073651;28;20025;-75
2023/06/17 05:47:14;;;;;;;10.30;9.30;;;;;;;14.07;100.00;101779.38;5073384;28;20131;-76
2023/06/17 05:49:39;;;;;;;10.43;8.13;;;;;;;14.30;100.00;101784.47;5074196;28;20035;-75
2023/06/17 05:52:05;;;;;;;8.77;7.80;;;;;;;14.50;100.00;101782.66;5092506;28;20120;-74
2023/06/17 05:54:31;;;;;;;8.88;6.97;;;;;;;14.70;100.00;101771.94;5092209;28;20112;-76
2023/06/17 05:56:57;;;;;;;11.88;6.35;;;;;;;14.94;100.00;101775.00;5074193;28;20059;-75
2023/06/17 05:59:23;;;;;;;7.63;5.57;;;;;;;15.24;100.00;101780.25;5074086;28;20082;-76
2023/06/17 06:01:49;;;;;;;8.63;5.38;;;;;;;15.51;100.00;101777.59;5074196;28;20056;-75
2023/06/17 06:04:14;;;;;;;7.32;4.90;;;;;;;15.80;100.00;101784.66;5058128;28;20114;-75
2023/06/17 06:06:40;;;;;;;6.57;5.03;;;;;;;16.13;100.00;101779.66;5092544;28;20028;-75
2023/06/17 06:09:05;;;;;;;4.60;4.18;;;;;;;16.45;100.00;101778.28;5074343;28;20077;-76
2023/06/17 06:11:31;;;;;;;7.45;4.55;;;;;;;16.75;100.00;101778.84;5073988;28;20112;-74
2023/06/17 06:13:56;;;;;;;7.07;3.85;;;;;;;17.05;100.00;101782.94;5073621;28;20058;-75
2023/06/17 06:16:21;;;;;;;6.13;4.10;;;;;;;17.36;100.00;101773.50;5091613;28;20052;-76
2023/06/17 06:18:47;;;;;;;5.32;3.85;;;;;;;17.63;100.00;101775.16;5092162;28;20040;-75
2023/06/17 06:21:12;;;;;;;7.25;3.78;;;;;;;17.87;100.00;101776.19;5073430;28;20452;-74
2023/06/17 06:23:38;;;;;;;5.45;3.50;;;;;;;18.07;100.00;101771.41;5073097;28;20064;-74
2023/06/17 06:26:03;;;;;;;5.63;3.92;;;;;;;18.22;100.00;101772.44;5092065;28;20551;-74
2023/06/17 06:28:28;;;;;;;7.97;3.72;;;;;;;18.47;100.00;101778.66;5092318;28;20059;-74
2023/06/17 06:30:54;;;;;;;7.28;3.90;;;;;;;18.75;100.00;101775.63;5074335;28;20341;-75
2023/06/17 06:33:20;;;;;;;4.60;4.20;;;;;;;18.91;100.00;101777.47;5074659;28;20111;-78
2023/06/17 06:35:45;;;;;;;4.18;3.78;;;;;;;19.02;100.00;101768.22;5074487;28;20036;-76
2023/06/17 06:38:11;;;;;;;5.38;3.95;;;;;;;19.09;100.00;101771.88;5074366;28;20031;-75
2023/06/17 06:40:36;;;;;;;5.45;4.00;;;;;;;19.29;100.00;101768.81;5057998;28;20035;-75
2023/06/17 06:43:02;;;;;;;3.90;3.47;;;;;;;19.47;100.00;101768.56;5092511;28;20097;-76
2023/06/17 06:45:27;;;;;;;4.80;3.40;;;;;;;19.50;100.00;101768.22;5074006;28;20051;-76
2023/06/17 06:47:52;;;;;;;5.18;3.55;;;;;;;19.71;100.00;101768.41;5092225;28;20039;-76
2023/06/17 06:50:18;;;;;;;6.72;3.80;;;;;;;19.89;100.00;101770.06;5092549;28;20055;-75
2023/06/17 06:52:43;;;;;;;8.48;3.88;;;;;;;20.04;100.00;101770.97;5074602;28;20557;-75
2023/06/17 06:55:09;;;;;;;14.68;4.00;;;;;;;20.18;100.00;101771.19;5092432;28;20032;-75
2023/06/17 06:57:34;;;;;;;5.47;3.80;;;;;;;20.25;100.00;101764.88;5094616;28;20036;-74
2023/06/17 06:59:59;;;;;;;8.60;3.53;;;;;;;20.37;100.00;101759.06;5096999;28;20020;-89
2023/06/17 07:02:25;;;;;;;7.38;3.88;;;;;;;20.42;98.11;101764.75;5097626;28;20346;-84
2023/06/17 07:04:51;;;;;;;4.55;3.45;;;;;;;20.40;100.00;101767.63;5078119;28;20032;-81
2023/06/17 07:07:17;;;;;;;8.57;3.53;;;;;;;20.52;100.00;101768.06;5096341;28;20067;-78
2023/06/17 07:09:42;;;;;;;10.23;3.90;;;;;;;20.66;91.72;101763.75;5096371;28;20066;-79
2023/06/17 07:12:08;;;;;;;5.75;3.70;;;;;;;20.76;99.33;101766.19;5096061;28;20483;-78
2023/06/17 07:14:35;;;;;;;5.05;3.72;;;;;;;20.87;95.52;101770.28;5096359;28;20028;-80
2023/06/17 07:17:00;;;;;;;3.92;3.33;;;;;;;20.94;88.36;101773.94;5074295;28;20129;-78
2023/06/17 07:19:26;;;;;;;5.78;4.03;;;;;;;21.01;91.73;101780.28;5074941;28;20115;-82
2023/06/17 07:21:51;;;;;;;5.95;3.75;;;;;;;21.23;95.59;101769.56;5075516;28;20104;-80
2023/06/17 07:24:16;;;;;;;6.55;3.85;;;;;;;21.46;92.26;101772.16;5076304;28;20563;-82
2023/06/17 07:26:42;;;;;;;7.30;4.05;;;;;;;21.60;93.61;101774.03;5076468;28;20033;-82
2023/06/17 07:29:09;;;;;;;6.50;4.00;;;;;;;21.79;99.45;101779.88;5076308;28;20384;-83
2023/06/17 07:31:35;;;;;;;5.80;3.92;;;;;;;21.81;100.00;101773.25;5075569;28;20037;-82
2023/06/17 07:34:00;;;;;;;6.18;3.60;;;;;;;21.81;99.58;101773.25;5076314;28;20038;-84
2023/06/17 07:36:26;;;;;;;3.53;3.22;;;;;;;21.91;70.29;101764.78;5076290;28;20115;-86
2023/06/17 07:38:51;;;;;;;8.10;3.45;;;;;;;22.02;64.71;101774.31;5075780;28;20117;-84
2023/06/17 07:41:17;;;;;;;5.75;3.60;;;;;;;22.06;56.30;101762.03;5074725;28;20452;-81
2023/06/17 07:43:42;;;;;;;7.43;3.88;;;;;;;21.96;58.84;101769.63;5075710;28;20453;-78
2023/06/17 07:46:07;;;;;;;4.47;3.63;;;;;;;22.03;62.66;101770.53;5075847;28;20032;-76
2023/06/17 07:48:33;;;;;;;4.75;3.13;;;;;;;22.19;59.55;101767.59;5076052;28;20029;-75
2023/06/17 07:50:59;;;;;;;12.77;3.78;;;;;;;22.34;62.22;101764.00;5073497;28;20058;-78
2023/06/17 07:53:24;;;;;;;7.90;3.50;;;;;;;22.50;60.36;101761.00;5074395;28;20456;-77
2023/06/17 07:55:51;;;;;;;5.32;3.80;;;;;;;22.65;50.47;101760.91;5073176;28;20031;-82
2023/06/17 07:58:17;;;;;;;6.22;3.50;;;;;;;22.86;53.96;101770.03;5072953;28;20095;-78
2023/06/17 08:00:42;;;;;;;7.15;3.28;;;;;;;23.07;48.38;101769.13;5073115;28;20040;-79
2023/06/17 08:03:08;;;;;;;7.85;3.83;;;;;;;23.14;50.61;101775.47;5074565;28;20083;-79
2023/06/17 08:05:33;;;;;;;4.13;3.10;;;;;;;23.11;47.23;101773.16;5074198;28;20081;-80
2023/06/17 08:07:58;;;;;;;8.05;3.35;;;;;;;23.14;49.42;101774.63;5072412;28;20457;-80
2023/06/17 08:10:24;;;;;;;5.78;3.78;;;;;;;23.21;46.59;101765.50;5074588;28;20086;-80
2023/06/17 08:12:50;;;;;;;5.60;3.22;;;;;;;23.19;48.59;101769.44;5056813;28;20033;-80
2023/06/17 08:15:15;;;;;;;4.10;3.10;;;;;;;23.33;49.60;101767.63;5074750;28;20044;-79
2023/06/17 08:17:43;;;;;;;7.05;3.17;;;;;;;23.44;51.41;101766.19;5094748;28;20044;-81
2023/06/17 08:20:09;;;;;;;5.03;3.30;;;;;;;23.50;45.74;101768.97;5095120;28;20028;-80
2023/06/17 08:22:36;;;;;;;3.17;2.88;;;;;;;23.66;46.17;101764.19;5095049;28;20032;-80
2023/06/17 08:25:01;;;;;;;3.42;3.03;;;;;;;23.89;45.71;101766.63;5076851;28;20020;-80
2023/06/17 08:27:28;;;;;;;6.38;3.35;;;;;;;24.03;45.36;101767.47;5095055;28;20028;-80
2023/06/17 08:29:53;;;;;;;4.88;3.20;;;;;;;24.15;45.05;101765.81;5095124;28;20051;-80
2023/06/17 08:32:18;;;;;;;4.53;3.15;;;;;;;24.31;45.60;101761.03;5094942;28;20055;-81
2023/06/17 08:34:44;;;;;;;6.20;3.20;;;;;;;24.47;47.64;101760.63;5094956;28;20036;-80
2023/06/17 08:37:09;;;;;;;7.45;2.88;;;;;;;24.57;42.43;101755.59;5076470;28;20135;-78
2023/06/17 08:39:39;;;;;;;5.00;2.72;;;;;;;24.64;45.01;101751.00;5095684;28;20475;-87
2023/06/17 08:42:06;;;;;;;4.50;2.90;;;;;;;24.73;38.51;101761.66;5095715;28;20126;-85
2023/06/17 08:44:35;;;;;;;4.57;2.58;;;;;;;24.64;39.79;101761.06;5097946;28;20487;-91
2023/06/17 08:47:05;;;;;;;6.07;2.95;;;;;;;24.80;39.73;101755.16;5077684;28;20491;-86
2023/06/17 08:49:47;;;;;;;3.78;2.92;;;;;;;25.04;40.73;101760.16;5098963;28;20032;-86
2023/06/17 08:52:14;;;;;;;3.78;2.88;;;;;;;25.11;38.36;101760.94;5099635;28;20391;-86
2023/06/17 08:54:40;;;;;;;6.13;2.80;;;;;;;25.29;37.11;101752.94;5096701;28;20047;-86
2023/06/17 08:57:13;;;;;;;4.45;2.90;;;;;;;25.55;36.76;101753.09;5077772;28;20028;-85
2023/06/17 08:59:40;;;;;;;5.50;3.10;;;;;;;25.57;36.35;101754.53;5077299;28;20028;-86
2023/06/17 09:02:07;;;;;;;6.25;2.40;;;;;;;25.78;36.99;101747.94;5078433;28;20121;-82
2023/06/17 09:04:34;;;;;;;6.97;2.83;;;;;;;26.22;37.21;101753.53;5094387;28;20031;-81
2023/06/17 09:06:59;;;;;;;5.55;3.40;;;;;;;26.71;37.24;101751.03;5094881;28;20147;-82
2023/06/17 09:09:25;;;;;;;4.95;2.80;;;;;;;27.45;37.68;101751.06;5094679;28;20036;-84
2023/06/17 09:11:52;;;;;;;6.53;3.15;;;;;;;27.91;35.43;101749.56;5094506;28;20465;-81
2023/06/17 09:14:19;;;;;;;3.63;2.70;;;;;;;28.08;35.56;101743.47;5076018;28;20039;-83
2023/06/17 09:16:44;;;;;;;3.47;2.80;;;;;;;28.26;32.05;101748.88;5076652;28;20379;-86
2023/06/17 09:19:13;;;;;;;4.68;2.90;;;;;;;28.35;32.30;101743.03;5093791;28;20095;-79
2023/06/17 09:21:38;;;;;;;4.72;2.40;;;;;;;28.61;33.25;101741.78;5093095;28;20453;-79
2023/06/17 09:24:06;;;;;;;19.83;3.28;;;;;;;28.84;32.35;101739.03;5093237;28;20040;-75
2023/06/17 09:26:39;;;;;;;3.85;2.60;;;;;;;28.79;34.09;101747.09;5093965;28;20069;-79
2023/06/17 09:29:10;;;;;;;4.93;2.60;;;;;;;28.86;33.41;101738.78;5093935;28;20039;-75
2023/06/17 09:31:48;;;;;;;6.00;2.80;;;;;;;28.71;34.75;101741.16;5093900;28;20032;-76
2023/06/17 09:34:14;;;;;;;5.90;2.70;;;;;;;28.98;33.71;101741.50;5059270;28;20036;-77
2023/06/17 09:36:40;;;;;;;4.82;2.70;;;;;;;29.34;35.92;101740.34;5093539;28;20027;-75
2023/06/17 09:39:10;;;;;;;3.28;2.60;;;;;;;29.12;32.98;101731.94;5058829;28;20380;-80
2023/06/17 09:41:37;;;;;;;3.50;2.80;;;;;;;29.11;30.74;101722.06;5093032;28;20445;-74
2023/06/17 09:44:02;;;;;;;3.65;2.80;;;;;;;29.25;32.62;101732.78;5093235;28;20122;-75
2023/06/17 09:46:29;;;;;;;4.85;2.78;;;;;;;29.42;32.75;101735.56;5093541;28;20157;-78
2023/06/17 09:48:59;;;;;;;3.75;2.65;;;;;;;29.12;30.48;101731.94;5075316;28;20115;-77
2023/06/17 09:51:25;;;;;;;4.65;2.40;;;;;;;29.23;31.03;101733.03;5075273;28;20501;-76
2023/06/17 09:53:52;;;;;;;6.57;2.90;;;;;;;28.77;32.20;101719.16;5075244;28;20032;-78
2023/06/17 09:56:19;;;;;;;7.88;2.85;;;;;;;29.14;29.97;101731.69;5092838;28;20473;-77
2023/06/17 09:58:45;;;;;;;3.10;2.80;;;;;;;29.10;32.89;101738.75;5075299;28;20031;-77
2023/06/17 10:01:11;;;;;;;4.68;2.70;;;;;;;29.47;32.89;101735.66;5092923;28;20032;-81
2023/06/17 10:03:39;;;;;;;6.55;2.90;;;;;;;30.00;31.35;101736.38;5093619;28;20036;-78
2023/06/17 10:06:13;;;;;;;5.65;2.60;;;;;;;29.78;31.65;101731.56;5075348;28;20081;-78
2023/06/17 10:08:47;;;;;;;7.03;2.70;;;;;;;30.03;27.94;101730.41;5075622;28;20437;-78
2023/06/17 10:11:17;;;;;;;8.43;2.72;;;;;;;29.93;27.50;101724.75;5094591;28;20107;-78
2023/06/17 10:13:45;;;;;;;4.70;2.80;;;;;;;29.97;32.55;101725.91;5093344;28;20028;-82
2023/06/17 10:16:17;;;;;;;4.53;2.53;;;;;;;30.16;30.58;101721.84;5093189;28;20050;-78
2023/06/17 10:18:47;;;;;;;6.93;2.80;;;;;;;30.69;29.72;101722.38;5075813;28;20085;-78
2023/06/17 10:21:13;;;;;;;6.38;2.90;;;;;;;31.15;29.35;101716.69;5093319;28;20536;-77
2023/06/17 10:23:41;;;;;;;6.43;2.88;;;;;;;31.55;28.97;101714.66;5093861;28;20036;-83
2023/06/17 10:26:07;;;;;;;5.35;2.90;;;;;;;31.89;27.33;101720.78;5093957;28;20024;-81
2023/06/17 10:28:51;;;;;;;12.40;3.58;;;;;;;32.07;27.77;101724.22;5093463;28;20035;-78
2023/06/17 10:31:24;;;;;;;3.63;3.00;;;;;;;31.21;28.03;101723.91;5076382;28;20082;-78
2023/06/17 10:33:52;;;;;;;4.65;2.72;;;;;;;31.09;28.87;101709.47;5079469;28;20023;-77
2023/06/17 10:36:20;;;;;;;3.60;2.50;;;;;;;31.52;30.61;101705.00;5097797;28;20530;-79
2023/06/17 10:39:03;;;;;;;4.00;2.70;;;;;;;31.87;28.68;101703.69;5100295;28;20103;-79
2023/06/17 10:41:37;;;;;;;5.07;2.67;;;;;;;31.90;26.49;101697.66;5097505;28;20020;-78
2023/06/17 10:44:40;;;;;;;3.67;2.92;;;;;;;32.46;27.52;101702.78;5100461;28;20478;-85
2023/06/17 10:47:22;;;;;;;2.97;2.50;;;;;;;32.49;26.76;101704.19;5100526;28;20032;-82
2023/06/17 10:49:49;;;;;;;2.70;2.50;;;;;;;32.42;27.34;101695.34;5097786;28;20028;-81
2023/06/17 10:52:16;;;;;;;4.22;2.63;;;;;;;32.74;26.80;101692.53;5096744;28;20081;-85
2023/06/17 10:54:54;;;;;;;5.15;2.90;;;;;;;33.14;27.64;101693.78;5097668;28;20452;-78
2023/06/17 10:57:33;;;;;;;5.60;2.53;;;;;;;32.68;25.47;101688.91;5097264;28;20032;-76
2023/06/17 11:00:00;;;;;;;5.93;3.00;;;;;;;33.02;27.92;101688.50;5097169;28;20509;-77
2023/06/17 11:02:26;;;;;;;4.57;2.70;;;;;;;33.59;25.58;101682.31;5096378;28;20031;-79
2023/06/17 11:04:51;;;;;;;8.88;2.80;;;;;;;33.78;27.30;101682.63;5096996;28;20024;-82
2023/06/17 11:07:26;;;;;;;5.05;2.88;;;;;;;33.97;26.14;101678.19;5061373;28;20426;-78
2023/06/17 11:09:51;;;;;;;5.82;2.63;;;;;;;34.38;23.49;101685.63;5079508;28;20379;-83
2023/06/17 11:12:17;;;;;;;5.00;2.55;;;;;;;34.48;25.17;101687.53;5096395;28;20016;-79
2023/06/17 11:14:43;;;;;;;4.68;2.75;;;;;;;34.57;25.63;101683.91;5096902;28;20032;-78